createdAt,value
2018-12-18T00:00:24.003Z,16.42
2018-12-18T00:02:54.753Z,15.18
2018-12-18T00:05:30.983Z,15.72
2018-12-18T00:07:59.797Z,13.55
2018-12-18T00:10:34.121Z,14.35
2018-12-18T00:13:02.894Z,15.53
2018-12-18T00:15:31.733Z,15.55
2018-12-18T00:18:00.631Z,16.25
2018-12-18T00:20:29.498Z,15.13
2018-12-18T00:22:58.367Z,16.10
2018-12-18T00:25:27.138Z,15.60
2018-12-18T00:27:55.920Z,14.07
2018-12-18T00:30:24.816Z,15.55
2018-12-18T00:32:53.636Z,13.88
2018-12-18T00:35:22.418Z,15.72
2018-12-18T00:37:51.190Z,15.13
2018-12-18T00:40:20.131Z,17.00
2018-12-18T00:42:49.019Z,16.57
2018-12-18T00:45:17.990Z,15.08
2018-12-18T00:47:46.742Z,14.75
2018-12-18T00:50:15.674Z,18.07
2018-12-18T00:52:44.746Z,15.68
2018-12-18T00:55:13.589Z,14.70
2018-12-18T00:57:42.470Z,14.93
2018-12-18T01:00:11.766Z,14.20
2018-12-18T01:02:40.614Z,13.93
2018-12-18T01:05:09.550Z,14.03
2018-12-18T01:07:38.394Z,19.60
2018-12-18T01:10:07.311Z,16.85
2018-12-18T01:12:36.087Z,15.68
2018-12-18T01:15:05.258Z,22.45
2018-12-18T01:17:34.022Z,21.02
2018-12-18T01:20:02.958Z,21.40
2018-12-18T01:22:31.755Z,17.05
2018-12-18T01:25:00.545Z,20.27
2018-12-18T01:27:29.396Z,20.10
2018-12-18T01:29:58.242Z,18.93
2018-12-18T01:32:27.003Z,21.87
2018-12-18T01:34:55.783Z,19.15
2018-12-18T01:37:24.569Z,21.60
2018-12-18T01:39:53.335Z,22.60
2018-12-18T01:42:22.155Z,22.20
2018-12-18T01:44:50.937Z,21.25
2018-12-18T01:47:19.739Z,19.25
2018-12-18T01:49:48.674Z,22.13
2018-12-18T01:52:17.475Z,23.27
2018-12-18T01:54:46.266Z,20.85
2018-12-18T01:57:15.046Z,21.55
2018-12-18T01:59:43.929Z,23.17
2018-12-18T02:02:12.715Z,24.18
2018-12-18T02:04:41.555Z,22.82
2018-12-18T02:07:10.429Z,23.18
2018-12-18T02:09:39.234Z,23.40
2018-12-18T02:12:08.011Z,22.10
2018-12-18T02:14:36.834Z,21.35
2018-12-18T02:17:05.632Z,26.77
2018-12-18T02:19:34.410Z,25.25
2018-12-18T02:22:03.284Z,25.35
2018-12-18T02:24:32.065Z,22.90
2018-12-18T02:27:00.982Z,24.47
2018-12-18T02:29:29.760Z,24.92
2018-12-18T02:31:58.517Z,22.58
2018-12-18T02:34:27.321Z,22.60
2018-12-18T02:36:56.092Z,22.20
2018-12-18T02:39:24.871Z,19.07
2018-12-18T02:41:53.678Z,21.95
2018-12-18T02:44:22.513Z,20.65
2018-12-18T02:46:51.295Z,21.02
2018-12-18T02:49:20.321Z,19.20
2018-12-18T02:51:49.090Z,20.23
2018-12-18T02:54:17.872Z,16.55
2018-12-18T02:56:46.638Z,19.97
2018-12-18T02:59:15.431Z,20.88
2018-12-18T03:01:44.208Z,22.55
2018-12-18T03:04:13.077Z,20.20
2018-12-18T03:06:41.858Z,20.35
2018-12-18T03:09:10.619Z,21.07
2018-12-18T03:11:39.383Z,21.73
2018-12-18T03:14:08.154Z,20.13
2018-12-18T03:16:36.928Z,18.37
2018-12-18T03:19:05.853Z,21.62
2018-12-18T03:21:34.662Z,20.55
2018-12-18T03:24:03.518Z,20.27
2018-12-18T03:26:32.371Z,17.82
2018-12-18T03:29:01.230Z,18.70
2018-12-18T03:31:30.551Z,19.92
2018-12-18T03:33:59.364Z,19.35
2018-12-18T03:36:28.106Z,20.30
2018-12-18T03:38:56.928Z,20.10
2018-12-18T03:41:25.985Z,17.32
2018-12-18T03:43:54.772Z,18.48
2018-12-18T03:46:23.561Z,19.48
2018-12-18T03:48:52.397Z,21.20
2018-12-18T03:51:21.172Z,21.83
2018-12-18T03:53:49.952Z,21.40
2018-12-18T03:56:18.744Z,20.02
2018-12-18T03:58:47.656Z,22.32
2018-12-18T04:01:16.447Z,21.25
2018-12-18T04:03:45.257Z,19.60
2018-12-18T04:06:14.043Z,21.00
2018-12-18T04:08:42.887Z,20.80
2018-12-18T04:11:11.667Z,20.10
2018-12-18T04:13:40.438Z,19.75
2018-12-18T04:16:09.231Z,19.75
2018-12-18T04:18:38.064Z,18.55
2018-12-18T04:21:06.838Z,22.45
2018-12-18T04:23:35.598Z,19.32
2018-12-18T04:26:04.463Z,22.75
2018-12-18T04:28:33.249Z,22.83
2018-12-18T04:31:02.049Z,20.77
2018-12-18T04:33:30.837Z,18.45
2018-12-18T04:35:59.624Z,22.05
2018-12-18T04:38:28.474Z,20.45
2018-12-18T04:40:57.290Z,21.50
2018-12-18T04:43:26.137Z,20.45
2018-12-18T04:45:54.889Z,17.98
2018-12-18T04:48:23.713Z,19.65
2018-12-18T04:50:52.533Z,16.60
2018-12-18T04:53:21.301Z,20.25
2018-12-18T04:55:50.112Z,20.37
2018-12-18T04:58:18.882Z,15.55
2018-12-18T05:00:47.671Z,16.07
2018-12-18T05:03:16.436Z,16.43
2018-12-18T05:05:45.201Z,11.95
2018-12-18T05:08:13.986Z,15.35
2018-12-18T05:10:42.786Z,16.73
2018-12-18T05:13:11.554Z,14.30
2018-12-18T05:15:40.575Z,16.10
2018-12-18T05:18:09.369Z,17.57
2018-12-18T05:20:38.134Z,18.40
2018-12-18T05:23:06.962Z,15.35
2018-12-18T05:25:35.750Z,12.53
2018-12-18T05:28:04.520Z,16.20
2018-12-18T05:30:33.294Z,17.42
2018-12-18T05:33:02.085Z,17.20
2018-12-18T05:35:30.877Z,22.02
2018-12-18T05:37:59.730Z,24.37
2018-12-18T05:40:28.505Z,26.93
2018-12-18T05:42:57.501Z,20.80
2018-12-18T05:45:26.260Z,19.77
2018-12-18T05:47:55.122Z,23.35
2018-12-18T05:50:23.880Z,24.18
2018-12-18T05:52:52.773Z,26.15
2018-12-18T05:55:21.604Z,24.10
2018-12-18T05:57:50.437Z,23.45
2018-12-18T06:00:19.274Z,22.60
2018-12-18T06:02:48.071Z,24.18
2018-12-18T06:05:16.840Z,20.57
2018-12-18T06:07:45.684Z,21.23
2018-12-18T06:10:14.458Z,20.92
2018-12-18T06:12:43.307Z,19.77
2018-12-18T06:15:12.101Z,18.62
2018-12-18T06:17:40.978Z,17.50
2018-12-18T06:20:09.871Z,18.37
2018-12-18T06:22:38.646Z,15.72
2018-12-18T06:25:07.592Z,19.70
2018-12-18T06:27:36.444Z,19.30
2018-12-18T06:30:05.753Z,17.17
2018-12-18T06:32:34.628Z,19.87
2018-12-18T06:35:09.994Z,15.95
2018-12-18T06:37:34.298Z,18.25
2018-12-18T06:40:03.364Z,22.07
2018-12-18T06:42:32.241Z,18.92
2018-12-18T06:45:00.959Z,23.02
2018-12-18T06:47:29.788Z,20.82
2018-12-18T06:49:58.630Z,20.80
2018-12-18T06:52:27.403Z,15.32
2018-12-18T06:54:56.192Z,16.15
2018-12-18T06:57:24.959Z,14.55
2018-12-18T06:59:53.749Z,13.90
2018-12-18T07:02:22.502Z,17.98
2018-12-18T07:04:51.274Z,15.53
2018-12-18T07:07:20.041Z,19.00
2018-12-18T07:09:48.818Z,17.80
2018-12-18T07:12:17.681Z,16.32
2018-12-18T07:14:46.457Z,16.05
2018-12-18T07:17:15.212Z,18.55
2018-12-18T07:19:44.013Z,19.63
2018-12-18T07:22:13.343Z,17.27
2018-12-18T07:24:42.131Z,16.23
2018-12-18T07:27:10.886Z,18.62
2018-12-18T07:29:39.671Z,15.47
2018-12-18T07:32:08.441Z,18.75
2018-12-18T07:34:37.210Z,16.82
2018-12-18T07:37:06.006Z,17.85
2018-12-18T07:39:34.806Z,16.55
2018-12-18T07:42:03.645Z,18.75
2018-12-18T07:44:32.415Z,22.82
2018-12-18T07:47:02.238Z,18.00
2018-12-18T07:49:31.015Z,20.07
2018-12-18T07:51:59.838Z,19.73
2018-12-18T07:54:28.615Z,17.25
2018-12-18T07:56:57.503Z,16.12
2018-12-18T07:59:26.313Z,17.70
2018-12-18T08:01:55.919Z,16.27
2018-12-18T08:04:24.691Z,16.87
2018-12-18T08:06:53.467Z,16.32
2018-12-18T08:09:22.241Z,21.23
2018-12-18T08:11:51.126Z,17.30
2018-12-18T08:14:19.899Z,21.25
2018-12-18T08:16:48.650Z,16.20
2018-12-18T08:19:17.434Z,17.77
2018-12-18T08:21:46.216Z,25.20
2018-12-18T08:24:15.002Z,12.53
2018-12-18T08:26:44.899Z,14.87
2018-12-18T08:29:13.694Z,11.95
2018-12-18T08:31:42.463Z,15.43
2018-12-18T08:34:11.248Z,14.05
2018-12-18T08:36:40.029Z,14.03
2018-12-18T08:39:09.496Z,14.13
2018-12-18T08:41:38.252Z,11.22
2018-12-18T08:44:07.107Z,12.18
2018-12-18T08:46:35.938Z,11.88
2018-12-18T08:49:04.708Z,13.35
2018-12-18T08:51:33.488Z,13.62
2018-12-18T08:54:02.254Z,11.15
2018-12-18T08:56:31.141Z,16.05
2018-12-18T08:58:59.902Z,15.83
2018-12-18T09:01:29.842Z,12.03
2018-12-18T09:03:58.692Z,11.43
2018-12-18T09:06:27.554Z,10.88
2018-12-18T09:08:56.342Z,9.90
2018-12-18T09:11:25.120Z,9.80
2018-12-18T09:13:53.903Z,10.20
2018-12-18T09:16:28.227Z,12.18
2018-12-18T09:18:56.993Z,12.00
2018-12-18T09:21:25.929Z,15.00
2018-12-18T09:23:54.773Z,16.35
2018-12-18T09:26:23.575Z,15.48
2018-12-18T09:28:52.348Z,11.57
2018-12-18T09:31:21.128Z,14.18
2018-12-18T09:33:49.903Z,12.40
2018-12-18T09:36:18.703Z,13.40
2018-12-18T09:38:53.935Z,11.55
2018-12-18T09:41:25.588Z,13.35
2018-12-18T09:44:00.662Z,11.15
2018-12-18T09:46:29.510Z,11.55
2018-12-18T09:48:58.291Z,8.68
2018-12-18T09:51:27.224Z,10.78
2018-12-18T09:53:55.986Z,13.50
2018-12-18T09:56:24.801Z,10.10
2018-12-18T09:58:53.581Z,12.23
2018-12-18T10:01:22.378Z,10.82
2018-12-18T10:03:51.159Z,11.83
2018-12-18T10:06:20.026Z,11.83
2018-12-18T10:08:49.900Z,8.83
2018-12-18T10:11:18.729Z,12.03
2018-12-18T10:13:47.494Z,7.22
2018-12-18T10:16:16.270Z,9.10
2018-12-18T10:18:45.048Z,10.28
2018-12-18T10:21:13.846Z,9.10
2018-12-18T10:23:42.638Z,8.00
2018-12-18T10:26:11.429Z,8.63
2018-12-18T10:28:40.213Z,11.28
2018-12-18T10:31:08.992Z,15.00
2018-12-18T10:33:37.766Z,9.23
2018-12-18T10:36:06.554Z,9.53
2018-12-18T10:38:35.407Z,9.60
2018-12-18T10:41:04.244Z,11.95
2018-12-18T10:43:33.129Z,9.75
2018-12-18T10:46:01.890Z,11.05
2018-12-18T10:48:30.663Z,8.45
2018-12-18T10:50:59.721Z,9.45
2018-12-18T10:53:28.626Z,10.15
2018-12-18T10:55:57.417Z,10.38
2018-12-18T10:58:26.266Z,9.10
2018-12-18T11:01:00.567Z,10.13
2018-12-18T11:03:29.353Z,7.83
2018-12-18T11:05:58.149Z,10.55
2018-12-18T11:08:26.933Z,10.88
2018-12-18T11:10:55.694Z,6.80
2018-12-18T11:13:24.520Z,9.43
2018-12-18T11:15:53.416Z,10.40
2018-12-18T11:18:22.305Z,8.38
2018-12-18T11:20:51.167Z,11.00
2018-12-18T11:23:19.947Z,10.38
2018-12-18T11:25:49.761Z,14.28
2018-12-18T11:28:18.562Z,10.15
2018-12-18T11:30:47.340Z,10.63
2018-12-18T11:33:16.183Z,12.10
2018-12-18T11:35:44.961Z,10.40
2018-12-18T11:38:13.742Z,11.65
2018-12-18T11:40:42.510Z,10.20
2018-12-18T11:43:11.284Z,10.87
2018-12-18T11:45:40.129Z,13.08
2018-12-18T11:48:08.898Z,11.57
2018-12-18T11:50:37.679Z,12.15
2018-12-18T11:53:06.766Z,10.30
2018-12-18T11:55:35.674Z,11.28
2018-12-18T11:58:04.561Z,10.53
2018-12-18T12:00:33.461Z,11.68
2018-12-18T12:03:02.309Z,9.53
2018-12-18T12:05:33.038Z,13.62
2018-12-18T12:08:01.878Z,12.10
2018-12-18T12:10:30.685Z,5.62
2018-12-18T12:12:59.472Z,8.95
2018-12-18T12:15:28.268Z,9.10
2018-12-18T12:17:57.103Z,8.98
2018-12-18T12:20:25.974Z,8.15
2018-12-18T12:22:54.819Z,11.57
2018-12-18T12:25:23.590Z,9.88
2018-12-18T12:27:57.653Z,8.18
2018-12-18T12:30:26.502Z,6.90
2018-12-18T12:32:55.281Z,13.10
2018-12-18T12:35:24.054Z,10.50
2018-12-18T12:37:52.838Z,7.50
2018-12-18T12:40:21.603Z,11.80
2018-12-18T12:42:50.374Z,9.30
2018-12-18T12:45:19.194Z,8.70
2018-12-18T12:47:51.378Z,9.75
2018-12-18T12:50:20.278Z,10.48
2018-12-18T12:52:49.060Z,11.97
2018-12-18T12:55:18.086Z,11.55
2018-12-18T12:57:46.910Z,11.43
2018-12-18T13:00:15.740Z,8.30
2018-12-18T13:02:44.541Z,10.35
2018-12-18T13:05:13.384Z,12.37
2018-12-18T13:07:42.237Z,10.28
2018-12-18T13:10:11.083Z,11.65
2018-12-18T13:12:39.851Z,15.38
2018-12-18T13:15:08.793Z,9.65
2018-12-18T13:17:37.627Z,9.68
2018-12-18T13:20:06.642Z,10.32
2018-12-18T13:22:35.502Z,14.33
2018-12-18T13:25:05.123Z,11.95
2018-12-18T13:27:33.883Z,13.72
2018-12-18T13:30:02.726Z,11.03
2018-12-18T13:32:32.624Z,10.78
2018-12-18T13:35:01.458Z,12.70
2018-12-18T13:37:30.234Z,11.28
2018-12-18T13:39:58.978Z,15.00
2018-12-18T13:42:27.757Z,11.03
2018-12-18T13:44:56.527Z,10.80
2018-12-18T13:47:27.272Z,13.43
2018-12-18T13:49:56.037Z,10.58
2018-12-18T13:52:24.809Z,13.17
2018-12-18T13:54:53.589Z,10.28
2018-12-18T13:57:22.393Z,10.78
2018-12-18T13:59:51.174Z,10.45
2018-12-18T14:02:19.921Z,11.53
2018-12-18T14:04:48.687Z,10.80
2018-12-18T14:07:17.445Z,11.83
2018-12-18T14:09:46.321Z,10.72
2018-12-18T14:12:16.026Z,12.20
2018-12-18T14:14:44.809Z,10.97
2018-12-18T14:17:13.603Z,13.15
2018-12-18T14:19:42.378Z,10.18
2018-12-18T14:22:11.146Z,12.35
2018-12-18T14:24:39.980Z,11.63
2018-12-18T14:27:08.837Z,10.07
2018-12-18T14:29:37.594Z,11.43
2018-12-18T14:32:06.439Z,12.80
2018-12-18T14:34:35.211Z,8.83
2018-12-18T14:37:04.102Z,10.23
2018-12-18T14:39:32.885Z,10.85
2018-12-18T14:42:01.652Z,10.23
2018-12-18T14:44:30.423Z,11.03
2018-12-18T14:46:59.188Z,12.03
2018-12-18T14:49:27.963Z,9.35
2018-12-18T14:51:56.718Z,10.10
2018-12-18T14:54:25.957Z,10.98
2018-12-18T14:56:54.735Z,12.63
2018-12-18T14:59:23.777Z,9.18
2018-12-18T15:01:52.621Z,9.68
2018-12-18T15:04:21.447Z,10.40
2018-12-18T15:06:50.202Z,8.80
2018-12-18T15:09:18.982Z,11.95
2018-12-18T15:11:47.750Z,11.03
2018-12-18T15:14:16.509Z,9.13
2018-12-18T15:16:45.411Z,8.53
2018-12-18T15:19:14.218Z,6.97
2018-12-18T15:21:43.056Z,9.63
2018-12-18T15:24:11.819Z,8.23
2018-12-18T15:26:40.662Z,10.20
2018-12-18T15:29:09.502Z,8.00
2018-12-18T15:31:38.246Z,8.43
2018-12-18T15:34:07.025Z,8.13
2018-12-18T15:36:35.869Z,11.40
2018-12-18T15:39:06.589Z,11.05
2018-12-18T15:41:36.549Z,9.75
2018-12-18T15:44:05.485Z,10.28
2018-12-18T15:46:34.314Z,11.83
2018-12-18T15:49:03.169Z,9.53
2018-12-18T15:51:32.000Z,7.67
2018-12-18T15:54:00.773Z,9.63
2018-12-18T15:56:29.534Z,10.07
2018-12-18T15:58:58.302Z,12.82
2018-12-18T16:01:27.089Z,11.00
2018-12-18T16:03:55.861Z,13.58
2018-12-18T16:06:24.606Z,8.18
2018-12-18T16:08:53.382Z,10.40
2018-12-18T16:11:22.128Z,9.68
2018-12-18T16:13:50.907Z,8.85
2018-12-18T16:16:19.745Z,9.70
2018-12-18T16:18:48.601Z,9.30
2018-12-18T16:21:17.458Z,13.78
2018-12-18T16:23:46.357Z,7.95
2018-12-18T16:26:17.107Z,9.70
2018-12-18T16:28:45.867Z,8.38
2018-12-18T16:31:14.632Z,10.88
2018-12-18T16:33:43.387Z,9.00
2018-12-18T16:36:12.288Z,8.68
2018-12-18T16:38:41.042Z,7.90
2018-12-18T16:41:09.801Z,10.53
2018-12-18T16:43:38.558Z,7.53
2018-12-18T16:48:52.191Z,7.83
2018-12-18T16:51:21.102Z,8.08
2018-12-18T16:53:49.976Z,11.68
2018-12-18T16:56:18.751Z,9.65
2018-12-18T16:58:47.515Z,10.77
2018-12-18T17:01:16.297Z,7.80
2018-12-18T17:03:45.114Z,10.35
2018-12-18T17:06:21.543Z,8.00
2018-12-18T17:08:51.499Z,11.07
2018-12-18T17:11:20.300Z,10.13
2018-12-18T17:13:49.125Z,10.40
2018-12-18T17:16:17.930Z,14.40
2018-12-18T17:18:46.799Z,10.60
2018-12-18T17:21:15.567Z,10.23
2018-12-18T17:23:44.327Z,8.35
2018-12-18T17:26:19.865Z,9.75
2018-12-18T17:28:48.730Z,10.45
2018-12-18T17:31:18.551Z,8.33
2018-12-18T17:33:47.330Z,9.10
2018-12-18T17:36:16.095Z,11.22
2018-12-18T17:38:44.862Z,10.28
2018-12-18T17:41:13.627Z,11.60
2018-12-18T17:43:42.731Z,12.33
2018-12-18T17:46:11.554Z,10.88
2018-12-18T17:48:40.383Z,10.20
2018-12-18T17:51:09.142Z,13.70
2018-12-18T17:53:37.910Z,12.58
2018-12-18T17:56:06.894Z,12.45
2018-12-18T17:58:35.683Z,16.60
2018-12-18T18:01:04.555Z,15.07
2018-12-18T18:03:33.320Z,14.53
2018-12-18T18:06:02.391Z,13.98
2018-12-18T18:08:31.157Z,14.47
2018-12-18T18:10:59.929Z,13.40
2018-12-18T18:13:28.722Z,11.22
2018-12-18T18:15:57.579Z,12.85
2018-12-18T18:18:26.359Z,14.05
2018-12-18T18:20:55.134Z,12.73
2018-12-18T18:23:24.943Z,13.83
2018-12-18T18:25:54.044Z,14.53
2018-12-18T18:28:22.865Z,12.47
2018-12-18T18:30:51.626Z,12.80
2018-12-18T18:33:21.339Z,13.65
2018-12-18T18:35:50.116Z,11.63
2018-12-18T18:38:18.859Z,14.38
2018-12-18T18:40:47.622Z,14.00
2018-12-18T18:43:16.367Z,15.75
2018-12-18T18:45:45.219Z,14.10
2018-12-18T18:48:14.018Z,15.00
2018-12-18T18:50:43.851Z,10.78
2018-12-18T18:53:12.621Z,13.43
2018-12-18T18:55:41.702Z,13.68
2018-12-18T18:58:10.450Z,16.07
2018-12-18T19:00:39.214Z,13.13
2018-12-18T19:03:07.987Z,15.00
2018-12-18T19:05:36.822Z,13.88
2018-12-18T19:08:05.655Z,15.70
2018-12-18T19:10:34.473Z,12.98
2018-12-18T19:13:03.256Z,17.17
2018-12-18T19:15:33.030Z,14.07
2018-12-18T19:18:01.808Z,11.83
2018-12-18T19:20:31.548Z,11.97
2018-12-18T19:23:00.310Z,12.88
2018-12-18T19:25:29.087Z,13.95
2018-12-18T19:27:57.887Z,13.43
2018-12-18T19:30:26.771Z,14.65
2018-12-18T19:32:55.598Z,19.12
2018-12-18T19:35:24.452Z,15.03
2018-12-18T19:37:53.489Z,12.70
2018-12-18T19:40:22.422Z,13.80
2018-12-18T19:42:51.200Z,12.85
2018-12-18T19:45:19.991Z,10.58
2018-12-18T19:47:48.770Z,20.50
2018-12-18T19:50:17.558Z,10.53
2018-12-18T19:52:46.353Z,11.63
2018-12-18T19:55:15.342Z,10.90
2018-12-18T19:57:44.102Z,12.15
2018-12-18T20:00:13.018Z,10.78
2018-12-18T20:02:41.812Z,12.20
2018-12-18T20:05:10.633Z,13.38
2018-12-18T20:07:40.436Z,11.35
2018-12-18T20:10:09.376Z,10.30
2018-12-18T20:12:38.159Z,13.08
2018-12-18T20:15:07.126Z,11.65
2018-12-18T20:17:35.933Z,11.38
2018-12-18T20:20:05.547Z,9.73
2018-12-18T20:22:34.583Z,11.60
2018-12-18T20:25:05.185Z,10.73
2018-12-18T20:27:33.938Z,11.30
2018-12-18T20:30:03.057Z,15.60
2018-12-18T20:32:31.886Z,10.18
2018-12-18T20:35:01.635Z,12.80
2018-12-18T20:40:16.098Z,8.93
2018-12-18T20:42:45.065Z,10.17
2018-12-18T20:45:13.838Z,9.27
2018-12-18T20:47:42.642Z,10.28
2018-12-18T20:50:11.553Z,7.50
2018-12-18T20:52:40.332Z,9.03
2018-12-18T20:55:09.111Z,9.20
2018-12-18T20:57:38.921Z,10.40
2018-12-18T21:00:10.204Z,10.40
2018-12-18T21:02:39.182Z,9.40
2018-12-18T21:05:09.213Z,9.50
2018-12-18T21:07:38.057Z,11.30
2018-12-18T21:10:08.079Z,11.18
2018-12-18T21:12:36.982Z,9.93
2018-12-18T21:15:06.571Z,10.25
2018-12-18T21:17:35.420Z,10.90
2018-12-18T21:20:05.274Z,8.93
2018-12-18T21:22:34.116Z,7.28
2018-12-18T21:25:03.132Z,10.32
2018-12-18T21:27:31.978Z,8.58
2018-12-18T21:30:00.918Z,8.45
2018-12-18T21:32:36.287Z,14.87
2018-12-18T21:35:05.540Z,11.65
2018-12-18T21:37:34.390Z,11.85
2018-12-18T21:40:03.478Z,11.85
2018-12-18T21:42:32.358Z,10.75
2018-12-18T21:45:01.426Z,10.60
2018-12-18T21:47:30.292Z,8.95
2018-12-18T21:49:59.288Z,7.80
2018-12-18T21:52:28.264Z,8.38
2018-12-18T21:54:59.525Z,10.80
2018-12-18T21:57:28.442Z,9.58
2018-12-18T21:59:57.326Z,12.15
2018-12-18T22:02:26.279Z,9.63
2018-12-18T22:04:55.102Z,12.90
2018-12-18T22:07:24.163Z,12.70
2018-12-18T22:09:53.080Z,11.97
2018-12-18T22:12:23.894Z,9.83
2018-12-18T22:14:52.742Z,10.53
2018-12-18T22:17:21.622Z,8.53
2018-12-18T22:19:50.491Z,12.45
2018-12-18T22:22:19.362Z,8.65
2018-12-18T22:24:48.286Z,8.97
2018-12-18T22:27:17.077Z,10.07
2018-12-18T22:29:45.934Z,9.63
2018-12-18T22:32:14.858Z,9.55
2018-12-18T22:34:43.651Z,10.98
2018-12-18T22:37:14.395Z,10.20
2018-12-18T22:39:43.661Z,10.30
2018-12-18T22:42:12.985Z,9.48
2018-12-18T22:44:42.945Z,15.63
2018-12-18T22:47:14.386Z,10.40
2018-12-18T22:49:44.099Z,9.80
2018-12-18T22:52:12.991Z,12.00
2018-12-18T22:54:42.194Z,9.48
2018-12-18T22:57:11.798Z,9.85
2018-12-18T22:59:40.614Z,8.80
2018-12-18T23:02:15.878Z,7.25
2018-12-18T23:04:46.272Z,9.05
2018-12-18T23:07:15.466Z,13.25
2018-12-18T23:09:44.571Z,9.00
2018-12-18T23:12:13.453Z,9.80
2018-12-18T23:14:42.905Z,8.53
2018-12-18T23:17:12.032Z,9.35
2018-12-18T23:19:40.945Z,8.85
2018-12-18T23:22:09.738Z,11.15
2018-12-18T23:24:39.079Z,8.78
2018-12-18T23:27:10.346Z,8.75
2018-12-18T23:29:39.431Z,9.70
2018-12-18T23:32:08.344Z,8.83
2018-12-18T23:34:37.507Z,6.05
2018-12-18T23:37:06.716Z,9.10
2018-12-18T23:39:35.616Z,8.08
2018-12-18T23:42:05.216Z,8.33
2018-12-18T23:44:34.340Z,7.05
2018-12-18T23:47:03.413Z,8.93
2018-12-18T23:49:32.190Z,6.47
2018-12-18T23:52:01.061Z,8.95
2018-12-18T23:54:30.024Z,7.70
2018-12-18T23:56:59.885Z,8.48
2018-12-18T23:59:29.067Z,6.92
